createdAt,value
2023-01-07T00:01:27.666Z,12.23
2023-01-07T00:03:55.640Z,10.90
2023-01-07T00:06:24.793Z,11.43
2023-01-07T00:08:53.068Z,10.87
2023-01-07T00:11:22.146Z,10.57
2023-01-07T00:13:50.322Z,11.57
2023-01-07T00:16:22.406Z,9.70
2023-01-07T00:18:51.219Z,10.95
2023-01-07T00:21:19.292Z,8.43
2023-01-07T00:23:47.346Z,10.32
2023-01-07T00:26:17.631Z,8.45
2023-01-07T00:28:45.794Z,8.82
2023-01-07T00:31:17.474Z,8.43
2023-01-07T00:33:59.506Z,8.53
2023-01-07T00:36:31.763Z,9.32
2023-01-07T00:39:04.489Z,9.63
2023-01-07T00:41:31.041Z,9.10
2023-01-07T00:43:57.534Z,9.25
2023-01-07T00:46:24.247Z,8.87
2023-01-07T00:48:50.794Z,7.90
2023-01-07T00:51:18.390Z,8.18
2023-01-07T00:53:45.348Z,8.40
2023-01-07T00:56:14.751Z,8.77
2023-01-07T00:58:41.845Z,8.07
2023-01-07T01:01:10.249Z,8.30
2023-01-07T01:03:36.791Z,9.60
2023-01-07T01:06:05.166Z,8.48
2023-01-07T01:08:31.699Z,10.00
2023-01-07T01:11:03.968Z,6.07
2023-01-07T01:13:30.355Z,8.52
2023-01-07T01:15:56.871Z,5.93
2023-01-07T01:18:23.316Z,6.82
2023-01-07T01:20:49.753Z,7.55
2023-01-07T01:23:16.138Z,9.03
2023-01-07T01:25:42.496Z,6.88
2023-01-07T01:28:08.907Z,6.47
2023-01-07T01:30:35.319Z,7.32
2023-01-07T01:33:01.680Z,6.90
2023-01-07T01:35:28.225Z,7.73
2023-01-07T01:37:54.567Z,7.65
2023-01-07T01:40:20.999Z,7.75
2023-01-07T01:42:47.492Z,6.72
2023-01-07T01:45:13.988Z,7.20
2023-01-07T01:47:56.495Z,8.70
2023-01-07T01:50:43.250Z,8.73
2023-01-07T01:53:29.745Z,7.65
2023-01-07T01:56:00.975Z,8.27
2023-01-07T01:58:32.645Z,9.35
2023-01-07T02:00:59.143Z,10.40
2023-01-07T02:03:28.438Z,9.52
2023-01-07T02:05:55.081Z,8.50
2023-01-07T02:08:24.022Z,7.68
2023-01-07T02:11:14.181Z,8.80
2023-01-07T02:14:30.040Z,9.07
2023-01-07T02:17:33.749Z,9.27
2023-01-07T02:20:24.494Z,8.63
2023-01-07T02:23:07.525Z,8.45
2023-01-07T02:25:52.751Z,6.93
2023-01-07T02:28:34.261Z,8.70
2023-01-07T02:31:22.212Z,9.25
2023-01-07T02:33:54.549Z,12.02
2023-01-07T02:36:39.745Z,6.65
2023-01-07T02:39:12.089Z,9.70
2023-01-07T02:42:16.447Z,8.40
2023-01-07T02:44:53.589Z,14.85
2023-01-07T02:47:22.765Z,9.82
2023-01-07T02:49:49.945Z,9.40
2023-01-07T02:52:24.834Z,7.32
2023-01-07T02:54:59.483Z,12.23
2023-01-07T02:57:44.720Z,9.70
2023-01-07T03:00:34.732Z,8.88
2023-01-07T03:03:13.055Z,7.40
2023-01-07T03:06:05.749Z,7.65
2023-01-07T03:08:52.560Z,8.73
2023-01-07T03:11:20.180Z,9.05
2023-01-07T03:14:00.104Z,7.60
2023-01-07T03:16:39.818Z,8.93
2023-01-07T03:19:18.139Z,9.52
2023-01-07T03:21:47.573Z,11.37
2023-01-07T03:24:16.321Z,6.47
2023-01-07T03:26:46.231Z,8.30
2023-01-07T03:29:15.394Z,9.40
2023-01-07T03:32:05.048Z,6.07
2023-01-07T03:34:34.222Z,8.53
2023-01-07T03:37:04.689Z,6.30
2023-01-07T03:39:34.610Z,5.95
2023-01-07T03:42:22.602Z,12.88
2023-01-07T03:44:48.979Z,7.03
2023-01-07T03:47:15.413Z,6.67
2023-01-07T03:49:41.797Z,7.35
2023-01-07T03:52:08.244Z,7.32
2023-01-07T03:54:34.664Z,5.32
2023-01-07T03:57:01.083Z,7.00
2023-01-07T03:59:27.468Z,6.93
2023-01-07T04:01:54.025Z,5.88
2023-01-07T04:04:20.676Z,9.07
2023-01-07T04:06:47.961Z,8.73
2023-01-07T04:09:21.970Z,4.90
2023-01-07T04:11:48.550Z,5.20
2023-01-07T04:14:15.009Z,5.43
2023-01-07T04:16:41.536Z,6.07
2023-01-07T04:19:08.174Z,7.70
2023-01-07T04:21:34.716Z,5.63
2023-01-07T04:24:01.163Z,6.33
2023-01-07T04:26:27.614Z,8.00
2023-01-07T04:28:54.032Z,7.78
2023-01-07T04:31:20.656Z,6.57
2023-01-07T04:33:47.098Z,7.05
2023-01-07T04:36:16.451Z,6.73
2023-01-07T04:38:42.899Z,8.65
2023-01-07T04:41:09.503Z,4.95
2023-01-07T04:43:36.298Z,4.82
2023-01-07T04:46:04.151Z,5.40
2023-01-07T04:48:31.069Z,4.47
2023-01-07T04:50:57.553Z,7.45
2023-01-07T04:53:24.252Z,7.85
2023-01-07T04:55:50.743Z,7.90
2023-01-07T04:58:17.257Z,5.15
2023-01-07T05:00:44.871Z,6.80
2023-01-07T05:03:11.251Z,5.15
2023-01-07T05:05:37.781Z,6.32
2023-01-07T05:08:04.737Z,7.35
2023-01-07T05:10:31.228Z,4.65
2023-01-07T05:12:57.638Z,5.23
2023-01-07T05:15:24.051Z,4.45
2023-01-07T05:17:50.637Z,4.78
2023-01-07T05:20:17.360Z,7.00
2023-01-07T05:22:43.912Z,6.55
2023-01-07T05:25:10.455Z,5.10
2023-01-07T05:27:36.836Z,5.00
2023-01-07T05:30:04.086Z,5.18
2023-01-07T05:32:30.472Z,4.82
2023-01-07T05:34:57.615Z,4.90
2023-01-07T05:37:24.182Z,5.87
2023-01-07T05:39:50.607Z,4.55
2023-01-07T05:42:17.077Z,5.30
2023-01-07T05:44:43.531Z,4.18
2023-01-07T05:47:10.005Z,3.70
2023-01-07T05:49:36.412Z,3.83
2023-01-07T05:52:02.917Z,5.68
2023-01-07T05:54:29.324Z,5.22
2023-01-07T05:56:55.789Z,4.53
2023-01-07T05:59:22.218Z,6.03
2023-01-07T06:01:48.712Z,4.90
2023-01-07T06:04:15.414Z,5.20
2023-01-07T06:06:41.871Z,4.25
2023-01-07T06:09:08.307Z,5.15
2023-01-07T06:11:34.816Z,4.88
2023-01-07T06:14:01.173Z,3.17
2023-01-07T06:16:27.631Z,3.70
2023-01-07T06:18:54.238Z,3.85
2023-01-07T06:21:21.533Z,3.75
2023-01-07T06:23:47.890Z,3.92
2023-01-07T06:26:14.299Z,5.00
2023-01-07T06:28:40.707Z,3.03
2023-01-07T06:31:10.085Z,3.13
2023-01-07T06:33:37.895Z,3.53
2023-01-07T06:36:05.111Z,3.60
2023-01-07T06:38:31.560Z,4.77
2023-01-07T06:41:02.143Z,4.57
2023-01-07T06:43:29.220Z,3.88
2023-01-07T06:45:56.210Z,3.42
2023-01-07T06:48:22.766Z,4.60
2023-01-07T06:50:49.252Z,4.30
2023-01-07T06:53:15.694Z,3.38
2023-01-07T06:55:48.006Z,3.17
2023-01-07T06:58:14.412Z,2.20
2023-01-07T07:00:40.790Z,2.50
2023-01-07T07:03:07.223Z,2.77
2023-01-07T07:05:34.680Z,4.60
2023-01-07T07:08:01.097Z,3.30
2023-01-07T07:10:27.563Z,3.20
2023-01-07T07:12:53.919Z,3.58
2023-01-07T07:15:20.501Z,2.50
2023-01-07T07:17:47.122Z,4.55
2023-01-07T07:20:13.582Z,3.28
2023-01-07T07:22:45.345Z,2.17
2023-01-07T07:25:12.162Z,2.45
2023-01-07T07:27:38.688Z,2.30
2023-01-07T07:30:08.373Z,3.03
2023-01-07T07:32:35.015Z,3.72
2023-01-07T07:35:01.514Z,1.80
2023-01-07T07:37:27.975Z,2.75
2023-01-07T07:39:54.337Z,5.50
2023-01-07T07:42:20.804Z,2.63
2023-01-07T07:44:47.223Z,4.53
2023-01-07T07:47:13.739Z,3.00
2023-01-07T07:49:40.178Z,2.20
2023-01-07T07:52:06.863Z,1.73
2023-01-07T07:54:33.461Z,3.15
2023-01-07T07:56:59.824Z,2.90
2023-01-07T07:59:26.384Z,2.50
2023-01-07T08:01:52.975Z,1.52
2023-01-07T08:04:19.485Z,2.33
2023-01-07T08:06:45.842Z,3.47
2023-01-07T08:09:12.370Z,1.85
2023-01-07T08:11:38.800Z,2.47
2023-01-07T08:14:05.476Z,3.95
2023-01-07T08:16:31.958Z,2.20
2023-01-07T08:18:58.539Z,2.17
2023-01-07T08:21:24.918Z,1.15
2023-01-07T08:23:51.282Z,2.40
2023-01-07T08:26:17.736Z,1.05
2023-01-07T08:28:46.495Z,2.23
2023-01-07T08:31:13.174Z,0.82
2023-01-07T08:33:39.708Z,3.30
2023-01-07T08:36:18.051Z,1.40
2023-01-07T08:38:53.641Z,1.08
2023-01-07T08:41:21.779Z,1.00
2023-01-07T08:43:48.272Z,1.75
2023-01-07T08:46:14.734Z,1.17
2023-01-07T08:48:41.306Z,2.28
2023-01-07T08:51:07.990Z,0.90
2023-01-07T08:53:34.923Z,1.70
2023-01-07T08:56:01.392Z,0.93
2023-01-07T08:58:27.898Z,1.20
2023-01-07T09:00:54.468Z,2.05
2023-01-07T09:03:21.526Z,1.30
2023-01-07T09:05:48.062Z,1.53
2023-01-07T09:08:14.464Z,2.00
2023-01-07T09:10:40.894Z,1.00
2023-01-07T09:13:07.878Z,2.05
2023-01-07T09:15:34.321Z,2.97
2023-01-07T09:18:04.929Z,2.60
2023-01-07T09:20:31.478Z,1.70
2023-01-07T09:22:58.483Z,2.13
2023-01-07T09:25:24.989Z,1.48
2023-01-07T09:27:51.461Z,0.90
2023-01-07T09:30:17.980Z,1.87
2023-01-07T09:32:44.927Z,1.52
2023-01-07T09:35:12.236Z,2.05
2023-01-07T09:37:39.095Z,0.95
2023-01-07T09:40:08.361Z,0.68
2023-01-07T09:42:51.622Z,1.00
2023-01-07T09:45:29.191Z,1.25
2023-01-07T09:47:58.723Z,0.88
2023-01-07T09:50:48.171Z,1.58
2023-01-07T09:53:22.079Z,2.28
2023-01-07T09:56:11.317Z,0.97
2023-01-07T09:58:41.530Z,0.68
2023-01-07T10:01:17.542Z,2.13
2023-01-07T10:03:43.936Z,0.70
2023-01-07T10:06:26.684Z,2.60
2023-01-07T10:09:13.684Z,1.50
2023-01-07T10:12:11.146Z,0.63
2023-01-07T10:14:51.369Z,0.82
2023-01-07T10:17:32.728Z,1.13
2023-01-07T10:20:10.297Z,1.30
2023-01-07T10:22:44.912Z,1.30
2023-01-07T10:25:20.313Z,0.88
2023-01-07T10:27:49.676Z,1.00
2023-01-07T10:30:21.589Z,1.38
2023-01-07T10:32:54.187Z,1.17
2023-01-07T10:35:27.278Z,2.00
2023-01-07T10:37:58.925Z,1.08
2023-01-07T10:40:42.879Z,3.20
2023-01-07T10:43:46.462Z,1.33
2023-01-07T10:46:32.480Z,2.13
2023-01-07T10:49:18.254Z,1.20
2023-01-07T10:51:53.409Z,1.27
2023-01-07T10:54:50.802Z,1.02
2023-01-07T10:57:23.095Z,1.05
2023-01-07T10:59:55.962Z,1.00
2023-01-07T11:02:27.374Z,1.53
2023-01-07T11:04:55.712Z,1.27
2023-01-07T11:07:40.117Z,1.50
2023-01-07T11:10:12.578Z,1.13
2023-01-07T11:12:53.677Z,1.02
2023-01-07T11:15:32.235Z,1.10
2023-01-07T11:18:27.887Z,1.98
2023-01-07T11:20:57.109Z,1.33
2023-01-07T11:23:35.689Z,1.67
2023-01-07T11:26:30.218Z,1.05
2023-01-07T11:29:16.981Z,1.27
2023-01-07T11:31:49.619Z,0.90
2023-01-07T11:34:26.955Z,1.05
2023-01-07T11:36:54.205Z,1.10
2023-01-07T11:39:29.634Z,0.80
2023-01-07T11:42:38.998Z,1.00
2023-01-07T11:45:21.666Z,1.00
2023-01-07T11:48:10.237Z,1.05
2023-01-07T11:50:54.761Z,1.23
2023-01-07T11:53:31.565Z,1.02
2023-01-07T11:56:01.261Z,1.53
2023-01-07T11:58:31.436Z,1.35
2023-01-07T12:01:12.765Z,0.73
2023-01-07T12:03:43.988Z,0.98
2023-01-07T12:06:18.794Z,1.20
2023-01-07T12:09:00.816Z,1.43
2023-01-07T12:11:43.187Z,1.60
2023-01-07T12:14:28.098Z,1.40
2023-01-07T12:16:57.713Z,1.27
2023-01-07T12:19:48.821Z,1.63
2023-01-07T12:22:52.257Z,1.87
2023-01-07T12:25:37.700Z,2.25
2023-01-07T12:28:13.179Z,2.67
2023-01-07T12:31:07.208Z,0.57
2023-01-07T12:33:52.526Z,1.60
2023-01-07T12:36:55.839Z,1.47
2023-01-07T12:39:38.977Z,1.67
2023-01-07T12:42:16.365Z,0.90
2023-01-07T12:44:56.710Z,1.77
2023-01-07T12:47:33.085Z,1.10
2023-01-07T12:50:03.857Z,0.80
2023-01-07T12:52:48.718Z,0.80
2023-01-07T12:55:36.223Z,0.85
2023-01-07T12:58:06.440Z,1.05
2023-01-07T13:00:46.638Z,1.50
2023-01-07T13:03:48.850Z,1.50
2023-01-07T13:06:53.645Z,1.00
2023-01-07T13:09:29.484Z,1.98
2023-01-07T13:12:40.847Z,2.25
2023-01-07T13:15:13.534Z,0.70
2023-01-07T13:17:40.735Z,1.87
2023-01-07T13:20:13.172Z,0.90
2023-01-07T13:22:48.654Z,1.02
2023-01-07T13:25:36.415Z,5.00
2023-01-07T13:28:22.430Z,0.85
2023-01-07T13:31:07.860Z,1.23
2023-01-07T13:33:47.519Z,1.20
2023-01-07T13:36:45.084Z,1.25
2023-01-07T13:39:44.144Z,0.70
2023-01-07T13:42:27.815Z,1.73
2023-01-07T13:45:10.224Z,0.80
2023-01-07T13:47:43.192Z,0.90
2023-01-07T13:50:38.998Z,4.38
2023-01-07T13:53:26.208Z,1.52
2023-01-07T13:55:55.024Z,1.35
2023-01-07T13:58:30.434Z,3.03
2023-01-07T14:01:09.000Z,1.85
2023-01-07T14:03:55.791Z,1.33
2023-01-07T14:06:22.303Z,1.55
2023-01-07T14:08:52.560Z,1.40
2023-01-07T14:11:20.967Z,0.83
2023-01-07T14:13:55.647Z,1.23
2023-01-07T14:16:31.863Z,1.20
2023-01-07T14:19:33.053Z,1.67
2023-01-07T14:22:27.175Z,1.80
2023-01-07T14:25:27.281Z,2.00
2023-01-07T14:28:24.079Z,1.17
2023-01-07T14:30:52.173Z,1.30
2023-01-07T14:33:35.161Z,2.35
2023-01-07T14:36:05.696Z,3.03
2023-01-07T14:38:32.171Z,2.20
2023-01-07T14:41:09.474Z,1.83
2023-01-07T14:43:48.532Z,2.20
2023-01-07T14:46:24.267Z,1.98
2023-01-07T14:49:03.183Z,3.28
2023-01-07T14:51:56.227Z,1.23
2023-01-07T14:54:44.525Z,1.88
2023-01-07T14:57:37.583Z,1.45
2023-01-07T15:00:35.530Z,1.35
2023-01-07T15:03:20.286Z,2.40
2023-01-07T15:06:14.098Z,1.50
2023-01-07T15:09:01.760Z,3.55
2023-01-07T15:11:48.210Z,2.88
2023-01-07T15:15:02.257Z,2.17
2023-01-07T15:17:28.822Z,1.60
2023-01-07T15:19:56.413Z,1.90
2023-01-07T15:22:55.565Z,2.05
2023-01-07T15:25:38.783Z,4.30
2023-01-07T15:28:11.638Z,2.55
2023-01-07T15:31:02.256Z,2.40
2023-01-07T15:34:06.219Z,2.07
2023-01-07T15:36:33.121Z,2.50
2023-01-07T15:39:03.250Z,4.50
2023-01-07T15:41:34.335Z,16.83
2023-01-07T15:44:06.681Z,6.40
2023-01-07T15:46:34.014Z,6.77
2023-01-07T15:49:09.504Z,3.42
2023-01-07T15:51:39.929Z,2.95
2023-01-07T15:54:21.472Z,7.72
2023-01-07T15:56:50.284Z,2.05
2023-01-07T15:59:22.328Z,2.10
2023-01-07T16:01:51.158Z,3.22
2023-01-07T16:04:26.345Z,6.82
2023-01-07T16:07:00.567Z,3.10
2023-01-07T16:09:27.578Z,3.92
2023-01-07T16:11:54.928Z,2.13
2023-01-07T16:14:24.288Z,2.72
2023-01-07T16:17:16.159Z,4.82
2023-01-07T16:19:42.862Z,2.35
2023-01-07T16:22:17.528Z,4.68
2023-01-07T16:24:53.728Z,4.70
2023-01-07T16:27:28.775Z,3.05
2023-01-07T16:29:58.078Z,2.17
2023-01-07T16:32:25.693Z,1.98
2023-01-07T16:35:09.141Z,3.22
2023-01-07T16:37:39.298Z,4.70
2023-01-07T16:40:18.009Z,4.07
2023-01-07T16:42:48.154Z,3.38
2023-01-07T16:45:36.611Z,2.47
2023-01-07T16:48:21.530Z,5.20
2023-01-07T16:50:48.970Z,5.30
2023-01-07T16:53:26.412Z,3.40
2023-01-07T16:56:02.121Z,4.65
2023-01-07T16:58:37.860Z,3.60
2023-01-07T17:01:05.266Z,4.10
2023-01-07T17:03:44.303Z,2.93
2023-01-07T17:06:11.678Z,2.67
2023-01-07T17:08:38.729Z,3.17
2023-01-07T17:11:17.565Z,2.92
2023-01-07T17:13:44.194Z,3.42
2023-01-07T17:16:39.767Z,4.07
2023-01-07T17:19:24.225Z,4.15
2023-01-07T17:21:50.841Z,1.98
2023-01-07T17:24:27.246Z,3.47
2023-01-07T17:26:55.548Z,2.17
2023-01-07T17:29:27.009Z,3.37
2023-01-07T17:31:53.442Z,3.42
2023-01-07T17:34:23.558Z,2.50
2023-01-07T17:36:51.555Z,2.40
2023-01-07T17:39:17.963Z,2.92
2023-01-07T17:42:03.019Z,2.80
2023-01-07T17:44:32.271Z,4.35
2023-01-07T17:46:58.804Z,2.90
2023-01-07T17:49:25.584Z,3.40
2023-01-07T17:51:54.524Z,3.75
2023-01-07T17:54:24.085Z,2.30
2023-01-07T17:56:50.654Z,3.05
2023-01-07T17:59:20.755Z,3.08
2023-01-07T18:01:47.828Z,4.40
2023-01-07T18:04:14.484Z,2.78
2023-01-07T18:06:42.827Z,3.67
2023-01-07T18:09:11.220Z,3.03
2023-01-07T18:11:59.135Z,2.85
2023-01-07T18:14:25.620Z,2.63
2023-01-07T18:16:52.753Z,3.00
2023-01-07T18:19:19.801Z,3.17
2023-01-07T18:21:46.722Z,5.75
2023-01-07T18:24:18.775Z,14.68
2023-01-07T18:26:46.686Z,5.55
2023-01-07T18:29:13.975Z,3.25
2023-01-07T18:31:42.942Z,2.83
2023-01-07T18:34:11.404Z,3.00
2023-01-07T18:36:37.936Z,2.97
2023-01-07T18:39:05.871Z,3.10
2023-01-07T18:41:33.510Z,3.10
2023-01-07T18:44:00.299Z,4.10
2023-01-07T18:46:26.839Z,3.55
2023-01-07T18:48:53.226Z,3.40
2023-01-07T18:51:19.656Z,3.88
2023-01-07T18:53:46.006Z,4.30
2023-01-07T18:56:13.084Z,4.37
2023-01-07T18:58:39.825Z,4.03
2023-01-07T19:01:08.328Z,3.67
2023-01-07T19:03:35.076Z,2.95
2023-01-07T19:06:06.989Z,5.68
2023-01-07T19:08:33.427Z,3.87
2023-01-07T19:10:59.982Z,4.25
2023-01-07T19:13:26.712Z,2.63
2023-01-07T19:15:53.179Z,4.72
2023-01-07T19:18:19.591Z,2.63
2023-01-07T19:20:46.029Z,4.53
2023-01-07T19:23:12.539Z,3.65
2023-01-07T19:25:38.959Z,2.47
2023-01-07T19:28:05.403Z,4.22
2023-01-07T19:30:31.815Z,3.70
2023-01-07T19:32:59.001Z,3.30
2023-01-07T19:35:26.717Z,2.30
2023-01-07T19:37:53.253Z,12.55
2023-01-07T19:40:19.705Z,4.03
2023-01-07T19:42:47.729Z,2.42
2023-01-07T19:45:14.142Z,2.87
2023-01-07T19:47:41.162Z,3.33
2023-01-07T19:50:08.220Z,3.25
2023-01-07T19:52:34.750Z,4.45
2023-01-07T19:55:01.344Z,2.78
2023-01-07T19:57:28.921Z,3.07
2023-01-07T19:59:55.757Z,3.47
2023-01-07T20:02:22.473Z,3.65
2023-01-07T20:04:49.029Z,5.05
2023-01-07T20:07:15.426Z,4.30
2023-01-07T20:09:41.764Z,2.47
2023-01-07T20:12:08.176Z,3.45
2023-01-07T20:14:34.638Z,2.97
2023-01-07T20:17:01.251Z,4.25
2023-01-07T20:19:28.418Z,4.68
2023-01-07T20:21:54.891Z,3.57
2023-01-07T20:24:21.641Z,3.78
2023-01-07T20:26:48.053Z,4.63
2023-01-07T20:29:14.575Z,5.07
2023-01-07T20:31:41.228Z,4.68
2023-01-07T20:34:07.957Z,3.00
2023-01-07T20:36:34.420Z,3.28
2023-01-07T20:39:06.023Z,3.47
2023-01-07T20:41:34.202Z,3.08
2023-01-07T20:44:03.410Z,5.25
2023-01-07T20:46:34.777Z,4.07
2023-01-07T20:49:01.464Z,4.20
2023-01-07T20:51:27.946Z,3.05
2023-01-07T20:53:54.395Z,2.83
2023-01-07T20:56:22.465Z,4.22
2023-01-07T20:58:49.616Z,3.43
2023-01-07T21:01:19.265Z,3.40
2023-01-07T21:03:47.557Z,2.83
2023-01-07T21:06:17.568Z,3.88
2023-01-07T21:08:46.647Z,4.45
2023-01-07T21:11:15.507Z,3.60
2023-01-07T21:13:42.831Z,3.60
2023-01-07T21:16:10.185Z,3.70
2023-01-07T21:18:37.070Z,4.28
2023-01-07T21:21:18.946Z,3.20
2023-01-07T21:23:48.777Z,2.60
2023-01-07T21:26:16.160Z,2.65
2023-01-07T21:28:44.327Z,3.35
2023-01-07T21:31:13.671Z,2.88
2023-01-07T21:33:40.724Z,3.58
2023-01-07T21:36:09.084Z,2.63
2023-01-07T21:38:35.742Z,4.20
2023-01-07T21:41:07.184Z,2.90
2023-01-07T21:43:33.626Z,5.82
2023-01-07T21:46:02.056Z,3.30
2023-01-07T21:48:30.998Z,3.70
2023-01-07T21:51:02.020Z,4.32
2023-01-07T21:53:33.123Z,2.88
2023-01-07T21:56:06.525Z,3.60
2023-01-07T21:58:32.997Z,2.17
2023-01-07T22:00:59.472Z,3.37
2023-01-07T22:03:28.086Z,2.85
2023-01-07T22:06:04.806Z,2.50
2023-01-07T22:08:33.470Z,2.55
2023-01-07T22:10:59.905Z,2.97
2023-01-07T22:13:26.561Z,2.00
2023-01-07T22:15:52.941Z,4.13
2023-01-07T22:18:19.339Z,3.05
2023-01-07T22:20:52.557Z,3.72
2023-01-07T22:23:18.920Z,3.78
2023-01-07T22:25:45.543Z,4.00
2023-01-07T22:28:14.689Z,3.20
2023-01-07T22:30:44.294Z,3.45
2023-01-07T22:33:10.639Z,2.28
2023-01-07T22:35:37.185Z,2.92
2023-01-07T22:38:04.190Z,2.97
2023-01-07T22:40:35.013Z,4.13
2023-01-07T22:43:06.517Z,3.80
2023-01-07T22:45:50.993Z,3.47
2023-01-07T22:48:22.213Z,2.58
2023-01-07T22:50:49.466Z,3.70
2023-01-07T22:53:15.975Z,3.92
2023-01-07T22:55:42.537Z,3.40
2023-01-07T22:58:08.927Z,3.13
2023-01-07T23:01:01.635Z,4.10
2023-01-07T23:03:28.124Z,2.33
2023-01-07T23:05:54.708Z,2.50
2023-01-07T23:08:21.147Z,6.10
2023-01-07T23:10:48.275Z,2.97
2023-01-07T23:13:14.916Z,2.97
2023-01-07T23:15:41.387Z,3.50
2023-01-07T23:18:08.847Z,4.88
2023-01-07T23:20:39.429Z,3.30
2023-01-07T23:23:06.197Z,3.55
2023-01-07T23:25:32.821Z,2.63
2023-01-07T23:27:59.274Z,3.33
2023-01-07T23:30:25.728Z,3.30
2023-01-07T23:32:52.209Z,2.90
2023-01-07T23:35:18.651Z,3.95
2023-01-07T23:37:45.292Z,3.13
2023-01-07T23:40:12.256Z,4.20
2023-01-07T23:42:38.867Z,3.20
2023-01-07T23:45:07.189Z,2.70
2023-01-07T23:47:36.776Z,3.20
2023-01-07T23:50:04.075Z,4.20
2023-01-07T23:52:30.535Z,4.57
2023-01-07T23:54:57.067Z,3.97
2023-01-07T23:57:23.519Z,5.72
2023-01-07T23:59:50.049Z,2.80
